Terminal Aerodrome Forecast
Issued by NWS

Home | Current Version | Previous Version | Text Only | Print | Product List | Glossary Off
Versions: 1 2 3 4 5 6 7 8 9 10 11 12 13

668
FTUS43 KMPX 151720
TAFRNH
TAF
KRNH 151720Z 1518/1618 33013G18KT 4SM -SN OVC020
      TEMPO 1520/1524 1 1/2SM -SN OVC013
     FM160300 33010KT 6SM -SN OVC025
     FM160700 33008KT P6SM SCT025 BKN040=

USA.gov is the U.S. government's official web portal to all federal, state and local government web resources and services.